sensor_id;sensor_type;location;lat;lon;timestamp;temperature;humidity
7498;DHT22;3790;48.806;9.140;2023-08-31T00:01:24;13.40;99.90
7498;DHT22;3790;48.806;9.140;2023-08-31T00:06:25;13.30;99.90
7498;DHT22;3790;48.806;9.140;2023-08-31T00:11:26;13.30;99.90
7498;DHT22;3790;48.806;9.140;2023-08-31T00:16:26;13.30;99.90
7498;DHT22;3790;48.806;9.140;2023-08-31T00:21:27;13.30;99.90
7498;DHT22;3790;48.806;9.140;2023-08-31T00:26:27;13.30;99.90
7498;DHT22;3790;48.806;9.140;2023-08-31T00:31:31;13.20;99.90
7498;DHT22;3790;48.806;9.140;2023-08-31T00:36:31;13.20;99.90
7498;DHT22;3790;48.806;9.140;2023-08-31T00:41:32;13.20;99.90
7498;DHT22;3790;48.806;9.140;2023-08-31T00:46:33;13.20;99.90
7498;DHT22;3790;48.806;9.140;2023-08-31T00:51:34;13.10;99.90
7498;DHT22;3790;48.806;9.140;2023-08-31T00:56:35;13.10;99.90
7498;DHT22;3790;48.806;9.140;2023-08-31T01:01:40;13.00;99.90
7498;DHT22;3790;48.806;9.140;2023-08-31T01:12:25;13.00;99.90
7498;DHT22;3790;48.806;9.140;2023-08-31T01:17:31;13.10;99.90
7498;DHT22;3790;48.806;9.140;2023-08-31T01:27:37;13.00;99.90
7498;DHT22;3790;48.806;9.140;2023-08-31T01:32:47;13.00;99.90
7498;DHT22;3790;48.806;9.140;2023-08-31T01:37:57;12.80;99.90
7498;DHT22;3790;48.806;9.140;2023-08-31T01:43:01;12.70;99.90
7498;DHT22;3790;48.806;9.140;2023-08-31T01:48:07;12.70;99.90
7498;DHT22;3790;48.806;9.140;2023-08-31T01:53:07;12.60;99.90
7498;DHT22;3790;48.806;9.140;2023-08-31T01:58:08;12.50;99.90
7498;DHT22;3790;48.806;9.140;2023-08-31T02:03:09;12.50;99.90
7498;DHT22;3790;48.806;9.140;2023-08-31T02:08:10;12.60;99.90
7498;DHT22;3790;48.806;9.140;2023-08-31T02:13:14;12.70;99.90
7498;DHT22;3790;48.806;9.140;2023-08-31T02:18:15;12.90;99.90
7498;DHT22;3790;48.806;9.140;2023-08-31T02:23:15;12.90;99.90
7498;DHT22;3790;48.806;9.140;2023-08-31T02:28:16;12.90;99.90
7498;DHT22;3790;48.806;9.140;2023-08-31T02:33:18;13.00;99.90
7498;DHT22;3790;48.806;9.140;2023-08-31T02:38:18;13.00;99.90
7498;DHT22;3790;48.806;9.140;2023-08-31T02:43:19;13.00;99.90
7498;DHT22;3790;48.806;9.140;2023-08-31T02:48:19;13.00;99.90
7498;DHT22;3790;48.806;9.140;2023-08-31T02:53:20;13.00;99.90
7498;DHT22;3790;48.806;9.140;2023-08-31T02:58:20;13.10;99.90
7498;DHT22;3790;48.806;9.140;2023-08-31T03:03:21;13.10;99.90
7498;DHT22;3790;48.806;9.140;2023-08-31T03:08:21;13.10;99.90
7498;DHT22;3790;48.806;9.140;2023-08-31T03:13:22;13.00;99.90
7498;DHT22;3790;48.806;9.140;2023-08-31T03:18:23;13.00;99.90
7498;DHT22;3790;48.806;9.140;2023-08-31T03:23:24;12.90;99.90
7498;DHT22;3790;48.806;9.140;2023-08-31T03:28:25;12.70;99.90
7498;DHT22;3790;48.806;9.140;2023-08-31T03:33:25;12.70;99.90
7498;DHT22;3790;48.806;9.140;2023-08-31T03:38:27;12.60;99.90
7498;DHT22;3790;48.806;9.140;2023-08-31T03:43:28;12.60;99.90
7498;DHT22;3790;48.806;9.140;2023-08-31T03:48:28;12.60;99.90
7498;DHT22;3790;48.806;9.140;2023-08-31T03:53:29;12.50;99.90
7498;DHT22;3790;48.806;9.140;2023-08-31T03:58:29;12.50;99.90
7498;DHT22;3790;48.806;9.140;2023-08-31T04:03:30;12.50;99.90
7498;DHT22;3790;48.806;9.140;2023-08-31T04:08:30;12.60;99.90
7498;DHT22;3790;48.806;9.140;2023-08-31T04:13:31;12.50;99.90
7498;DHT22;3790;48.806;9.140;2023-08-31T04:18:31;12.50;99.90
7498;DHT22;3790;48.806;9.140;2023-08-31T04:23:32;12.50;99.90
7498;DHT22;3790;48.806;9.140;2023-08-31T04:28:32;12.40;99.90
7498;DHT22;3790;48.806;9.140;2023-08-31T04:33:39;12.50;99.90
7498;DHT22;3790;48.806;9.140;2023-08-31T04:38:40;12.50;99.90
7498;DHT22;3790;48.806;9.140;2023-08-31T04:43:41;12.50;99.90
7498;DHT22;3790;48.806;9.140;2023-08-31T04:48:41;12.50;99.90
7498;DHT22;3790;48.806;9.140;2023-08-31T04:53:42;12.60;99.90
7498;DHT22;3790;48.806;9.140;2023-08-31T04:58:42;12.60;99.90
7498;DHT22;3790;48.806;9.140;2023-08-31T05:03:43;12.60;99.90
7498;DHT22;3790;48.806;9.140;2023-08-31T05:08:43;12.60;99.90
7498;DHT22;3790;48.806;9.140;2023-08-31T05:13:44;12.60;99.90
7498;DHT22;3790;48.806;9.140;2023-08-31T05:18:44;12.60;99.90
7498;DHT22;3790;48.806;9.140;2023-08-31T05:23:47;12.60;99.90
7498;DHT22;3790;48.806;9.140;2023-08-31T05:28:48;12.60;99.90
7498;DHT22;3790;48.806;9.140;2023-08-31T05:33:48;12.80;99.90
7498;DHT22;3790;48.806;9.140;2023-08-31T05:38:51;12.90;99.90
7498;DHT22;3790;48.806;9.140;2023-08-31T05:43:52;13.00;99.90
7498;DHT22;3790;48.806;9.140;2023-08-31T05:48:52;12.90;99.90
7498;DHT22;3790;48.806;9.140;2023-08-31T05:53:53;12.90;99.90
7498;DHT22;3790;48.806;9.140;2023-08-31T05:58:53;12.80;99.90
7498;DHT22;3790;48.806;9.140;2023-08-31T06:03:55;12.70;99.90
7498;DHT22;3790;48.806;9.140;2023-08-31T06:08:55;12.70;99.90
7498;DHT22;3790;48.806;9.140;2023-08-31T06:13:56;12.60;99.90
7498;DHT22;3790;48.806;9.140;2023-08-31T06:18:57;12.70;99.90
7498;DHT22;3790;48.806;9.140;2023-08-31T06:24:00;12.60;99.90
7498;DHT22;3790;48.806;9.140;2023-08-31T06:29:01;12.60;99.90
7498;DHT22;3790;48.806;9.140;2023-08-31T06:34:01;12.80;99.90
7498;DHT22;3790;48.806;9.140;2023-08-31T06:39:02;13.10;99.90
7498;DHT22;3790;48.806;9.140;2023-08-31T06:44:05;13.50;99.90
7498;DHT22;3790;48.806;9.140;2023-08-31T06:49:05;14.00;99.90
7498;DHT22;3790;48.806;9.140;2023-08-31T06:54:06;14.40;99.90
7498;DHT22;3790;48.806;9.140;2023-08-31T06:59:07;14.70;99.90
7498;DHT22;3790;48.806;9.140;2023-08-31T07:04:10;14.70;99.90
7498;DHT22;3790;48.806;9.140;2023-08-31T07:09:10;14.90;99.90
7498;DHT22;3790;48.806;9.140;2023-08-31T07:14:11;14.60;99.90
7498;DHT22;3790;48.806;9.140;2023-08-31T07:19:11;14.60;99.90
7498;DHT22;3790;48.806;9.140;2023-08-31T07:24:12;14.70;99.90
7498;DHT22;3790;48.806;9.140;2023-08-31T07:29:12;14.60;99.90
7498;DHT22;3790;48.806;9.140;2023-08-31T07:34:13;14.70;99.90
7498;DHT22;3790;48.806;9.140;2023-08-31T07:39:13;14.70;99.90
7498;DHT22;3790;48.806;9.140;2023-08-31T07:44:14;14.90;99.90
7498;DHT22;3790;48.806;9.140;2023-08-31T07:49:14;15.10;99.90
7498;DHT22;3790;48.806;9.140;2023-08-31T07:54:23;15.30;99.90
7498;DHT22;3790;48.806;9.140;2023-08-31T07:59:23;15.40;99.90
7498;DHT22;3790;48.806;9.140;2023-08-31T08:04:24;15.60;99.90
7498;DHT22;3790;48.806;9.140;2023-08-31T08:09:26;15.80;99.90
7498;DHT22;3790;48.806;9.140;2023-08-31T08:14:28;16.20;99.90
7498;DHT22;3790;48.806;9.140;2023-08-31T08:19:29;16.40;99.90
7498;DHT22;3790;48.806;9.140;2023-08-31T08:24:29;16.50;99.90
7498;DHT22;3790;48.806;9.140;2023-08-31T08:29:30;16.30;99.90
7498;DHT22;3790;48.806;9.140;2023-08-31T08:34:30;16.30;99.90
7498;DHT22;3790;48.806;9.140;2023-08-31T08:39:32;16.20;99.90
7498;DHT22;3790;48.806;9.140;2023-08-31T08:44:33;16.20;99.90
7498;DHT22;3790;48.806;9.140;2023-08-31T08:49:36;16.60;99.90
7498;DHT22;3790;48.806;9.140;2023-08-31T08:54:38;17.00;99.90
7498;DHT22;3790;48.806;9.140;2023-08-31T08:59:38;17.10;99.90
7498;DHT22;3790;48.806;9.140;2023-08-31T09:04:40;17.10;99.90
7498;DHT22;3790;48.806;9.140;2023-08-31T09:09:51;16.70;99.90
7498;DHT22;3790;48.806;9.140;2023-08-31T09:20:00;17.10;99.90
7498;DHT22;3790;48.806;9.140;2023-08-31T09:25:01;17.20;99.90
7498;DHT22;3790;48.806;9.140;2023-08-31T09:30:03;17.20;99.90
7498;DHT22;3790;48.806;9.140;2023-08-31T09:35:08;17.40;99.90
7498;DHT22;3790;48.806;9.140;2023-08-31T09:40:09;17.40;99.90
7498;DHT22;3790;48.806;9.140;2023-08-31T09:45:10;17.10;99.90
7498;DHT22;3790;48.806;9.140;2023-08-31T09:50:11;16.80;99.90
7498;DHT22;3790;48.806;9.140;2023-08-31T09:55:12;16.70;99.90
7498;DHT22;3790;48.806;9.140;2023-08-31T10:00:13;16.60;99.90
7498;DHT22;3790;48.806;9.140;2023-08-31T10:05:18;16.70;99.90
7498;DHT22;3790;48.806;9.140;2023-08-31T10:10:20;16.80;99.90
7498;DHT22;3790;48.806;9.140;2023-08-31T10:15:22;17.20;99.90
7498;DHT22;3790;48.806;9.140;2023-08-31T10:20:23;17.50;99.90
7498;DHT22;3790;48.806;9.140;2023-08-31T10:25:24;17.60;99.90
7498;DHT22;3790;48.806;9.140;2023-08-31T10:30:26;17.60;99.90
7498;DHT22;3790;48.806;9.140;2023-08-31T10:35:41;17.10;99.90
7498;DHT22;3790;48.806;9.140;2023-08-31T10:40:42;17.50;99.90
7498;DHT22;3790;48.806;9.140;2023-08-31T10:45:59;17.80;99.90
7498;DHT22;3790;48.806;9.140;2023-08-31T10:51:00;17.50;99.90
7498;DHT22;3790;48.806;9.140;2023-08-31T10:56:00;17.80;99.90
7498;DHT22;3790;48.806;9.140;2023-08-31T11:01:01;17.80;99.90
7498;DHT22;3790;48.806;9.140;2023-08-31T11:06:01;17.90;99.90
7498;DHT22;3790;48.806;9.140;2023-08-31T11:11:02;17.80;99.90
7498;DHT22;3790;48.806;9.140;2023-08-31T11:16:03;17.70;99.90
7498;DHT22;3790;48.806;9.140;2023-08-31T11:21:05;17.50;99.90
7498;DHT22;3790;48.806;9.140;2023-08-31T11:26:06;17.60;99.90
7498;DHT22;3790;48.806;9.140;2023-08-31T11:31:07;18.30;99.90
7498;DHT22;3790;48.806;9.140;2023-08-31T11:36:07;18.40;99.90
7498;DHT22;3790;48.806;9.140;2023-08-31T11:41:18;18.80;99.90
7498;DHT22;3790;48.806;9.140;2023-08-31T11:46:19;19.00;99.90
7498;DHT22;3790;48.806;9.140;2023-08-31T11:51:19;18.70;99.90
7498;DHT22;3790;48.806;9.140;2023-08-31T11:56:20;18.60;99.90
7498;DHT22;3790;48.806;9.140;2023-08-31T12:01:21;19.00;99.90
7498;DHT22;3790;48.806;9.140;2023-08-31T12:06:21;19.30;99.90
7498;DHT22;3790;48.806;9.140;2023-08-31T12:11:22;19.20;99.90
7498;DHT22;3790;48.806;9.140;2023-08-31T12:16:22;18.80;99.90
7498;DHT22;3790;48.806;9.140;2023-08-31T12:21:24;18.80;99.90
7498;DHT22;3790;48.806;9.140;2023-08-31T12:26:25;19.40;99.90
7498;DHT22;3790;48.806;9.140;2023-08-31T12:31:26;19.60;99.90
7498;DHT22;3790;48.806;9.140;2023-08-31T12:36:27;20.40;99.90
7498;DHT22;3790;48.806;9.140;2023-08-31T12:41:28;20.50;99.90
7498;DHT22;3790;48.806;9.140;2023-08-31T12:46:30;20.20;99.90
7498;DHT22;3790;48.806;9.140;2023-08-31T12:51:31;19.80;99.90
7498;DHT22;3790;48.806;9.140;2023-08-31T12:56:31;19.30;99.90
7498;DHT22;3790;48.806;9.140;2023-08-31T13:01:32;18.80;99.90
7498;DHT22;3790;48.806;9.140;2023-08-31T13:06:33;18.90;99.90
7498;DHT22;3790;48.806;9.140;2023-08-31T13:11:34;18.90;99.90
7498;DHT22;3790;48.806;9.140;2023-08-31T13:16:34;18.90;99.90
7498;DHT22;3790;48.806;9.140;2023-08-31T13:21:37;19.00;99.90
7498;DHT22;3790;48.806;9.140;2023-08-31T13:26:37;18.70;99.90
7498;DHT22;3790;48.806;9.140;2023-08-31T13:31:38;19.00;99.90
7498;DHT22;3790;48.806;9.140;2023-08-31T13:36:39;19.90;99.90
7498;DHT22;3790;48.806;9.140;2023-08-31T13:41:41;21.00;99.90
7498;DHT22;3790;48.806;9.140;2023-08-31T13:46:42;21.00;99.90
7498;DHT22;3790;48.806;9.140;2023-08-31T13:51:42;20.40;99.90
7498;DHT22;3790;48.806;9.140;2023-08-31T13:56:43;19.80;99.90
7498;DHT22;3790;48.806;9.140;2023-08-31T14:01:44;19.70;99.90
7498;DHT22;3790;48.806;9.140;2023-08-31T14:06:44;19.60;99.90
7498;DHT22;3790;48.806;9.140;2023-08-31T14:11:45;19.20;99.90
7498;DHT22;3790;48.806;9.140;2023-08-31T14:16:45;18.80;99.90
7498;DHT22;3790;48.806;9.140;2023-08-31T14:21:48;18.40;99.90
7498;DHT22;3790;48.806;9.140;2023-08-31T14:26:49;18.30;99.90
7498;DHT22;3790;48.806;9.140;2023-08-31T14:31:49;18.30;99.90
7498;DHT22;3790;48.806;9.140;2023-08-31T14:36:50;18.20;99.90
7498;DHT22;3790;48.806;9.140;2023-08-31T14:41:51;18.10;99.90
7498;DHT22;3790;48.806;9.140;2023-08-31T14:46:52;18.00;99.90
7498;DHT22;3790;48.806;9.140;2023-08-31T14:51:53;18.00;99.90
7498;DHT22;3790;48.806;9.140;2023-08-31T14:56:53;18.10;99.90
7498;DHT22;3790;48.806;9.140;2023-08-31T15:01:53;18.20;99.90
7498;DHT22;3790;48.806;9.140;2023-08-31T15:06:54;18.30;99.90
7498;DHT22;3790;48.806;9.140;2023-08-31T15:11:55;18.60;99.90
7498;DHT22;3790;48.806;9.140;2023-08-31T15:16:57;18.50;99.90
7498;DHT22;3790;48.806;9.140;2023-08-31T15:21:59;18.60;99.90
7498;DHT22;3790;48.806;9.140;2023-08-31T15:26:59;18.70;99.90
7498;DHT22;3790;48.806;9.140;2023-08-31T15:32:00;18.60;99.90
7498;DHT22;3790;48.806;9.140;2023-08-31T15:37:01;18.70;99.90
7498;DHT22;3790;48.806;9.140;2023-08-31T15:42:01;18.70;99.90
7498;DHT22;3790;48.806;9.140;2023-08-31T15:47:02;18.60;99.90
7498;DHT22;3790;48.806;9.140;2023-08-31T15:52:03;18.20;99.90
7498;DHT22;3790;48.806;9.140;2023-08-31T15:57:04;18.00;99.90
7498;DHT22;3790;48.806;9.140;2023-08-31T16:02:05;17.80;99.90
7498;DHT22;3790;48.806;9.140;2023-08-31T16:07:06;17.70;99.90
7498;DHT22;3790;48.806;9.140;2023-08-31T16:12:07;17.70;99.90
7498;DHT22;3790;48.806;9.140;2023-08-31T16:17:08;17.80;99.90
7498;DHT22;3790;48.806;9.140;2023-08-31T16:22:08;17.50;99.90
7498;DHT22;3790;48.806;9.140;2023-08-31T16:27:09;17.50;99.90
7498;DHT22;3790;48.806;9.140;2023-08-31T16:32:09;17.30;99.90
7498;DHT22;3790;48.806;9.140;2023-08-31T16:37:10;17.40;99.90
7498;DHT22;3790;48.806;9.140;2023-08-31T16:42:10;17.70;99.90
7498;DHT22;3790;48.806;9.140;2023-08-31T16:47:11;17.90;99.90
7498;DHT22;3790;48.806;9.140;2023-08-31T16:52:12;17.80;99.90
7498;DHT22;3790;48.806;9.140;2023-08-31T16:57:13;17.80;99.90
7498;DHT22;3790;48.806;9.140;2023-08-31T17:02:16;17.70;99.90
7498;DHT22;3790;48.806;9.140;2023-08-31T17:07:17;17.60;99.90
7498;DHT22;3790;48.806;9.140;2023-08-31T17:12:17;17.50;99.90
7498;DHT22;3790;48.806;9.140;2023-08-31T17:17:18;17.40;99.90
7498;DHT22;3790;48.806;9.140;2023-08-31T17:22:18;17.40;99.90
7498;DHT22;3790;48.806;9.140;2023-08-31T17:27:19;17.60;99.90
7498;DHT22;3790;48.806;9.140;2023-08-31T17:32:20;17.80;99.90
7498;DHT22;3790;48.806;9.140;2023-08-31T17:37:20;17.80;99.90
7498;DHT22;3790;48.806;9.140;2023-08-31T17:42:21;17.90;99.90
7498;DHT22;3790;48.806;9.140;2023-08-31T17:47:21;17.90;99.90
7498;DHT22;3790;48.806;9.140;2023-08-31T17:52:22;17.90;99.90
7498;DHT22;3790;48.806;9.140;2023-08-31T17:57:23;17.70;99.90
7498;DHT22;3790;48.806;9.140;2023-08-31T18:02:28;17.60;99.90
7498;DHT22;3790;48.806;9.140;2023-08-31T18:07:29;17.50;99.90
7498;DHT22;3790;48.806;9.140;2023-08-31T18:12:29;17.50;99.90
7498;DHT22;3790;48.806;9.140;2023-08-31T18:17:30;17.40;99.90
7498;DHT22;3790;48.806;9.140;2023-08-31T18:22:32;17.20;99.90
7498;DHT22;3790;48.806;9.140;2023-08-31T18:27:33;17.20;99.90
7498;DHT22;3790;48.806;9.140;2023-08-31T18:32:33;17.30;99.90
7498;DHT22;3790;48.806;9.140;2023-08-31T18:37:36;17.40;99.90
7498;DHT22;3790;48.806;9.140;2023-08-31T18:42:55;17.30;99.90
7498;DHT22;3790;48.806;9.140;2023-08-31T18:47:56;17.40;99.90
7498;DHT22;3790;48.806;9.140;2023-08-31T18:52:56;17.40;99.90
7498;DHT22;3790;48.806;9.140;2023-08-31T18:57:57;17.40;99.90
7498;DHT22;3790;48.806;9.140;2023-08-31T19:02:58;17.30;99.90
7498;DHT22;3790;48.806;9.140;2023-08-31T19:07:58;17.10;99.90
7498;DHT22;3790;48.806;9.140;2023-08-31T19:12:59;16.90;99.90
7498;DHT22;3790;48.806;9.140;2023-08-31T19:18:07;16.60;99.90
7498;DHT22;3790;48.806;9.140;2023-08-31T19:23:07;16.60;99.90
7498;DHT22;3790;48.806;9.140;2023-08-31T19:28:08;16.40;99.90
7498;DHT22;3790;48.806;9.140;2023-08-31T19:33:08;16.20;99.90
7498;DHT22;3790;48.806;9.140;2023-08-31T19:38:09;16.10;99.90
7498;DHT22;3790;48.806;9.140;2023-08-31T19:43:09;16.10;99.90
7498;DHT22;3790;48.806;9.140;2023-08-31T19:48:11;16.20;99.90
7498;DHT22;3790;48.806;9.140;2023-08-31T19:53:12;16.30;99.90
7498;DHT22;3790;48.806;9.140;2023-08-31T19:58:14;16.60;99.90
7498;DHT22;3790;48.806;9.140;2023-08-31T20:03:14;16.40;99.90
7498;DHT22;3790;48.806;9.140;2023-08-31T20:08:15;16.50;99.90
7498;DHT22;3790;48.806;9.140;2023-08-31T20:13:15;16.70;99.90
7498;DHT22;3790;48.806;9.140;2023-08-31T20:18:16;16.80;99.90
7498;DHT22;3790;48.806;9.140;2023-08-31T20:23:16;16.90;99.90
7498;DHT22;3790;48.806;9.140;2023-08-31T20:28:17;16.70;99.90
7498;DHT22;3790;48.806;9.140;2023-08-31T20:33:20;16.50;99.90
7498;DHT22;3790;48.806;9.140;2023-08-31T20:38:21;16.50;99.90
7498;DHT22;3790;48.806;9.140;2023-08-31T20:43:24;16.50;99.90
7498;DHT22;3790;48.806;9.140;2023-08-31T20:48:24;16.50;99.90
7498;DHT22;3790;48.806;9.140;2023-08-31T20:53:27;16.30;99.90
7498;DHT22;3790;48.806;9.140;2023-08-31T20:58:28;16.00;99.90
7498;DHT22;3790;48.806;9.140;2023-08-31T21:03:28;15.90;99.90
7498;DHT22;3790;48.806;9.140;2023-08-31T21:08:29;16.00;99.90
7498;DHT22;3790;48.806;9.140;2023-08-31T21:13:30;16.00;99.90
7498;DHT22;3790;48.806;9.140;2023-08-31T21:18:36;15.90;99.90
7498;DHT22;3790;48.806;9.140;2023-08-31T21:23:37;16.00;99.90
7498;DHT22;3790;48.806;9.140;2023-08-31T21:28:37;15.90;99.90
7498;DHT22;3790;48.806;9.140;2023-08-31T21:33:38;15.50;99.90
7498;DHT22;3790;48.806;9.140;2023-08-31T21:38:39;15.10;99.90
7498;DHT22;3790;48.806;9.140;2023-08-31T21:43:39;15.30;99.90
7498;DHT22;3790;48.806;9.140;2023-08-31T21:48:41;15.50;99.90
7498;DHT22;3790;48.806;9.140;2023-08-31T21:53:42;15.60;99.90
7498;DHT22;3790;48.806;9.140;2023-08-31T21:58:42;15.70;99.90
7498;DHT22;3790;48.806;9.140;2023-08-31T22:03:43;15.80;99.90
7498;DHT22;3790;48.806;9.140;2023-08-31T22:08:43;15.80;99.90
7498;DHT22;3790;48.806;9.140;2023-08-31T22:13:44;15.80;99.90
7498;DHT22;3790;48.806;9.140;2023-08-31T22:18:45;15.80;99.90
7498;DHT22;3790;48.806;9.140;2023-08-31T22:23:45;15.80;99.90
7498;DHT22;3790;48.806;9.140;2023-08-31T22:28:46;15.90;99.90
7498;DHT22;3790;48.806;9.140;2023-08-31T22:33:46;15.80;99.90
7498;DHT22;3790;48.806;9.140;2023-08-31T22:38:47;15.10;99.90
7498;DHT22;3790;48.806;9.140;2023-08-31T22:43:47;15.30;99.90
7498;DHT22;3790;48.806;9.140;2023-08-31T22:48:48;15.20;99.90
7498;DHT22;3790;48.806;9.140;2023-08-31T22:53:48;15.30;99.90
7498;DHT22;3790;48.806;9.140;2023-08-31T22:58:49;15.30;99.90
7498;DHT22;3790;48.806;9.140;2023-08-31T23:03:50;15.40;99.90
7498;DHT22;3790;48.806;9.140;2023-08-31T23:08:50;15.60;99.90
7498;DHT22;3790;48.806;9.140;2023-08-31T23:13:50;15.60;99.90
7498;DHT22;3790;48.806;9.140;2023-08-31T23:18:51;15.50;99.90
7498;DHT22;3790;48.806;9.140;2023-08-31T23:23:52;15.60;99.90
7498;DHT22;3790;48.806;9.140;2023-08-31T23:28:53;15.80;99.90
7498;DHT22;3790;48.806;9.140;2023-08-31T23:33:53;15.90;99.90
7498;DHT22;3790;48.806;9.140;2023-08-31T23:38:55;16.00;99.90
7498;DHT22;3790;48.806;9.140;2023-08-31T23:43:55;16.00;99.90
7498;DHT22;3790;48.806;9.140;2023-08-31T23:48:56;16.00;99.90
7498;DHT22;3790;48.806;9.140;2023-08-31T23:53:57;15.90;99.90
7498;DHT22;3790;48.806;9.140;2023-08-31T23:58:58;15.90;99.90
